Teresa Mcallister — WDC6818 — position and weather

sailwx.info

Track history (hours):
 
Tides and Currents Weather Stations Pressure Air Temp Water Temp Dewpoint Dewpoint Depression Visibility Wind Speed Wind Dir Waves Ship Positions

Teresa Mcallister

Owner: McAllister Towing of Philadelphia, INC, Philadelphia, PA. More information available from US FCC via Universal Licensing System and Coast Guard Vessel Documentation Center.

Last reported at 2018-Jun-19 04:00 UTC. Time now 2018-Jun-19 04:20 UTC.
Position N 39°54' W 075°08'.

Length 28 m.

Type: Tug. MMSI: 367061730.

Date/timePositionNaut miles runAvg speedWind from/ knotsBaromVisibWave heightAir tempDewpointWater temp
2018-Jun-19 04:00N 39°54' W 075°08'0 0.0
2018-Jun-19 03:30N 39°54' W 075°08'0 0.0
2018-Jun-19 03:00N 39°54' W 075°08'0 0.0
2018-Jun-19 02:29N 39°54' W 075°08'0 0.0
2018-Jun-19 02:01N 39°54' W 075°08'0 0.0
2018-Jun-19 01:30N 39°54' W 075°08'0 0.0
2018-Jun-19 01:00N 39°54' W 075°08'0 0.0
2018-Jun-19 00:30N 39°54' W 075°08'0 0.0
2018-Jun-19 00:00N 39°54' W 075°08'0 0.0
2018-Jun-18 23:30N 39°54' W 075°08'1 1.7
2018-Jun-18 23:00N 39°54' W 075°08'1 1.8
2018-Jun-18 22:30N 39°53' W 075°09'2 4.9
2018-Jun-18 22:00N 39°54' W 075°12'0 0.0
2018-Jun-18 21:30N 39°54' W 075°12'0 0.0
2018-Jun-18 21:00N 39°54' W 075°12'0 0.0
2018-Jun-18 20:30N 39°54' W 075°12'0 0.0
2018-Jun-18 20:00N 39°54' W 075°12'0 0.0
2018-Jun-18 19:30N 39°54' W 075°12'0 0.0
2018-Jun-18 19:00N 39°54' W 075°12'0 0.0
2018-Jun-18 18:30N 39°54' W 075°12'0 0.0
2018-Jun-18 18:00N 39°54' W 075°12'0 0.0
2018-Jun-18 17:30N 39°54' W 075°12'0 0.0
2018-Jun-18 17:00N 39°54' W 075°12'0 0.0
2018-Jun-18 16:30N 39°54' W 075°12'0 0.0
2018-Jun-18 16:00N 39°54' W 075°12'0 0.0
2018-Jun-18 15:30N 39°54' W 075°12'0 0.0
2018-Jun-18 15:00N 39°54' W 075°12'0 0.0
2018-Jun-18 14:30N 39°54' W 075°12'0 0.0
2018-Jun-18 14:00N 39°54' W 075°12'0 0.0
2018-Jun-18 13:30N 39°54' W 075°12'0 0.0
2018-Jun-18 13:00N 39°54' W 075°12'0 0.0
2018-Jun-18 12:31N 39°54' W 075°12'1 1.2
2018-Jun-18 12:01N 39°53' W 075°12'3 5.2
2018-Jun-18 11:31N 39°54' W 075°08'0 0.5
2018-Jun-18 11:01N 39°54' W 075°08'2 4.0
2018-Jun-18 10:30N 39°53' W 075°11'1 1.8
2018-Jun-18 10:01N 39°53' W 075°10'1 2.5
2018-Jun-18 09:30N 39°54' W 075°08'0 0.0
2018-Jun-18 09:01N 39°54' W 075°08'2 4.7
2018-Jun-18 08:31N 39°56' W 075°08'0 0.0
2018-Jun-18 07:59N 39°56' W 075°08'0 0.8
2018-Jun-18 07:30N 39°56' W 075°08'2 3.7
2018-Jun-18 07:00N 39°54' W 075°08'2 4.0
2018-Jun-18 06:31N 39°56' W 075°08'1 2.1
2018-Jun-18 06:00N 39°55' W 075°08'3 6.7
2018-Jun-18 05:31N 39°54' W 075°12'0 0.0
2018-Jun-17 10:24N 39°54' W 075°12'3 6.6
2018-Jun-17 10:00N 39°53' W 075°09'1 1.8
2018-Jun-17 09:30N 39°54' W 075°08'2 3.6
2018-Jun-17 09:00N 39°53' W 075°10'2 4.4
2018-Jun-17 08:30N 39°54' W 075°08'0 0.0
2018-Jun-17 08:00N 39°54' W 075°08'0 0.0
2018-Jun-17 07:30N 39°54' W 075°08'0 0.0
2018-Jun-17 07:00N 39°54' W 075°08'0 0.0
2018-Jun-17 06:30N 39°54' W 075°08'0 0.0
2018-Jun-17 06:00N 39°54' W 075°08'0 0.0
2018-Jun-17 05:30N 39°54' W 075°08'0 0.8
2018-Jun-17 05:00N 39°55' W 075°08'1 1.0
2018-Jun-17 04:30N 39°54' W 075°08'0 0.2
2018-Jun-17 04:00N 39°54' W 075°08'0 0.0
2018-Jun-17 03:30N 39°54' W 075°08'0 0.0
2018-Jun-17 03:00N 39°54' W 075°08'4 7.4
2018-Jun-17 02:30N 39°58' W 075°07'510.1
2018-Jun-17 02:00N 40°01' W 075°02'611.2
2018-Jun-17 01:30N 40°04' W 074°56'510.1
2018-Jun-17 01:00N 40°06' W 074°50'4 7.9
2018-Jun-17 00:29N 40°08' W 074°45'0 0.1
2018-Jun-17 00:00N 40°08' W 074°45'3 6.7
2018-Jun-16 23:30N 40°07' W 074°50'4 7.9
2018-Jun-16 23:00N 40°05' W 074°53'4 8.9
2018-Jun-16 22:30N 40°03' W 074°58'4 8.7
2018-Jun-16 22:00N 40°00' W 075°03'5 9.1
2018-Jun-16 21:30N 39°58' W 075°08'4 8.3
2018-Jun-16 21:00N 39°53' W 075°08'3 5.6
2018-Jun-16 20:30N 39°54' W 075°12'0 0.0
2018-Jun-16 20:00N 39°54' W 075°12'0 0.0
2018-Jun-16 19:30N 39°54' W 075°12'0 0.0
2018-Jun-16 19:00N 39°54' W 075°12'0 0.0
2018-Jun-16 18:30N 39°54' W 075°12'0 0.0
2018-Jun-16 18:00N 39°54' W 075°12'0 0.0
2018-Jun-16 17:30N 39°54' W 075°12'0 0.8
2018-Jun-16 17:00N 39°53' W 075°12'3 5.9
2018-Jun-16 16:30N 39°54' W 075°08'0 0.2
2018-Jun-16 16:00N 39°54' W 075°08'1 2.1
2018-Jun-16 15:30N 39°53' W 075°08'2 3.5
2018-Jun-16 15:00N 39°53' W 075°11'1 2.7
2018-Jun-16 14:30N 39°54' W 075°12'0 0.0
2018-Jun-16 14:00N 39°54' W 075°12'0 0.0
2018-Jun-16 13:30N 39°54' W 075°12'0 0.0
2018-Jun-16 13:00N 39°54' W 075°12'0 0.0
2018-Jun-16 12:31N 39°54' W 075°12'0 0.0
2018-Jun-16 12:00N 39°54' W 075°12'0 0.0
2018-Jun-16 11:31N 39°54' W 075°12'0 0.0
2018-Jun-16 11:00N 39°54' W 075°12'0 0.0
2018-Jun-16 10:31N 39°54' W 075°12'0 0.0
2018-Jun-16 10:00N 39°54' W 075°12'0 0.0
2018-Jun-16 09:31N 39°54' W 075°12'0 0.0
2018-Jun-16 09:01N 39°54' W 075°12'0 0.0
2018-Jun-16 08:30N 39°54' W 075°12'0 0.0
2018-Jun-16 08:01N 39°54' W 075°12'0 0.0
2018-Jun-16 07:30N 39°54' W 075°12'0 0.0
2018-Jun-16 07:01N 39°54' W 075°12'0 0.0
2018-Jun-16 06:30N 39°54' W 075°12'0 0.0
2018-Jun-16 06:00N 39°54' W 075°12'0 0.0
2018-Jun-16 05:30N 39°54' W 075°12'0 0.0
2018-Jun-16 05:00N 39°54' W 075°12'0 0.0
2018-Jun-16 04:30N 39°54' W 075°12'0 0.0
2018-Jun-16 04:00N 39°54' W 075°12'0 0.0
2018-Jun-16 03:30N 39°54' W 075°12'0 0.0
2018-Jun-16 03:00N 39°54' W 075°12'0 0.0
2018-Jun-16 02:30N 39°54' W 075°12'0 0.0
2018-Jun-16 02:00N 39°54' W 075°12'0 0.0
2018-Jun-16 01:30N 39°54' W 075°12'0 0.0
2018-Jun-16 01:00N 39°54' W 075°12'0 0.0
2018-Jun-16 00:30N 39°54' W 075°12'0 0.0
2018-Jun-16 00:00N 39°54' W 075°12'0 0.0
2018-Jun-15 23:30N 39°54' W 075°12'0 0.0
2018-Jun-15 22:59N 39°54' W 075°12'0 0.0
2018-Jun-15 22:30N 39°54' W 075°12'2 3.4
2018-Jun-15 22:00N 39°52' W 075°13'3 6.8
2018-Jun-15 21:30N 39°51' W 075°17'1 1.1
2018-Jun-15 21:00N 39°51' W 075°16'3 5.0
2018-Jun-15 20:30N 39°52' W 075°13'2 3.4
2018-Jun-15 19:56N 39°54' W 075°12'0 0.7
2018-Jun-15 19:30N 39°54' W 075°12'0 0.0
2018-Jun-15 19:00N 39°54' W 075°12'0 0.0
2018-Jun-15 18:30N 39°54' W 075°12'0 0.0
2018-Jun-15 18:00N 39°54' W 075°12'0 0.0
2018-Jun-15 17:30N 39°54' W 075°12'0 0.0
2018-Jun-15 17:00N 39°54' W 075°12'0 0.0
2018-Jun-15 16:30N 39°54' W 075°12'0 0.0
2018-Jun-15 16:00N 39°54' W 075°12'0 0.0
2018-Jun-15 15:30N 39°54' W 075°12'0 0.0
2018-Jun-15 15:00N 39°54' W 075°12'0 0.0
2018-Jun-15 14:30N 39°54' W 075°12'0 0.0
2018-Jun-15 14:00N 39°54' W 075°12'0 0.1
2018-Jun-15 13:30N 39°54' W 075°12'0 0.0
2018-Jun-15 13:01N 39°54' W 075°12'0 0.0
2018-Jun-15 12:30N 39°54' W 075°12'0 0.0
2018-Jun-15 12:00N 39°54' W 075°12'0 0.0
2018-Jun-15 11:30N 39°54' W 075°12'0 0.0
2018-Jun-15 11:01N 39°54' W 075°12'0 0.0
2018-Jun-15 10:31N 39°54' W 075°12'0 0.0
2018-Jun-15 10:00N 39°54' W 075°12'0 0.0
2018-Jun-15 09:30N 39°54' W 075°12'0 0.0
2018-Jun-15 09:00N 39°54' W 075°12'0 0.0
2018-Jun-15 08:30N 39°54' W 075°12'0 0.0
2018-Jun-15 08:00N 39°54' W 075°12'0 0.0
2018-Jun-15 07:30N 39°54' W 075°12'0 0.0
2018-Jun-15 07:00N 39°54' W 075°12'0 0.0
2018-Jun-15 06:31N 39°54' W 075°12'0 0.0
2018-Jun-15 06:01N 39°54' W 075°12'0 0.0
2018-Jun-15 05:30N 39°54' W 075°12'0 0.0
2018-Jun-15 05:00N 39°54' W 075°12'0 0.0
2018-Jun-15 04:31N 39°54' W 075°12'0 0.0
2018-Jun-15 04:00N 39°54' W 075°12'0 0.0
2018-Jun-15 03:30N 39°54' W 075°12'0 0.0
2018-Jun-15 03:00N 39°54' W 075°12'0 0.0
2018-Jun-15 02:30N 39°54' W 075°12'0 0.0
2018-Jun-15 02:00N 39°54' W 075°12'0 0.0
2018-Jun-15 01:30N 39°54' W 075°12'0 0.0
2018-Jun-15 01:00N 39°54' W 075°12'0 0.0
2018-Jun-15 00:30N 39°54' W 075°12'0 0.0
2018-Jun-15 00:00N 39°54' W 075°12'0 0.0
2018-Jun-14 23:30N 39°54' W 075°12'0 0.0
2018-Jun-14 23:00N 39°54' W 075°12'2 4.1
2018-Jun-14 22:30N 39°53' W 075°09'5 9.1
2018-Jun-14 22:00N 39°57' W 075°08'2 4.4
2018-Jun-14 21:30N 39°58' W 075°06'0 0.3
2018-Jun-14 21:00N 39°59' W 075°06'4 7.5
2018-Jun-14 20:30N 39°55' W 075°08'1 2.0
2018-Jun-14 20:00N 39°54' W 075°08'0 0.1
2018-Jun-14 19:30N 39°54' W 075°08'2 3.2
2018-Jun-14 19:00N 39°53' W 075°09'3 5.1
2018-Jun-14 18:30N 39°54' W 075°12'0 0.0
2018-Jun-14 18:00N 39°54' W 075°12'0 0.0
2018-Jun-14 17:30N 39°54' W 075°12'0 0.0
2018-Jun-14 17:00N 39°54' W 075°12'0 0.0
2018-Jun-14 16:30N 39°54' W 075°12'0 0.0
2018-Jun-14 16:00N 39°54' W 075°12'0 0.0
2018-Jun-14 15:30N 39°54' W 075°12'0 0.0
2018-Jun-14 15:00N 39°54' W 075°12'0 0.0
2018-Jun-14 14:30N 39°54' W 075°12'0 0.0
2018-Jun-14 14:01N 39°54' W 075°12'0 0.0
2018-Jun-14 13:30N 39°54' W 075°12'0 0.0
2018-Jun-14 13:00N 39°54' W 075°12'0 0.0
2018-Jun-14 12:30N 39°54' W 075°12'0 0.0
2018-Jun-14 12:00N 39°54' W 075°12'0 0.0
2018-Jun-14 11:30N 39°54' W 075°12'0 0.0
2018-Jun-14 11:00N 39°54' W 075°12'0 0.0
2018-Jun-14 10:30N 39°54' W 075°12'0 0.0
2018-Jun-14 10:01N 39°54' W 075°12'3 7.0
2018-Jun-14 09:31N 39°51' W 075°15'4 8.6
2018-Jun-14 09:00N 39°51' W 075°20'4 8.9
2018-Jun-14 08:30N 39°48' W 075°25'5 9.4
2018-Jun-14 08:00N 39°45' W 075°30'2 4.2
2018-Jun-14 07:30N 39°43' W 075°31'0 0.0
2018-Jun-14 07:00N 39°43' W 075°31'0 0.1
2018-Jun-14 06:30N 39°43' W 075°31'1 1.2
2018-Jun-14 06:00N 39°43' W 075°30'0 1.0
2018-Jun-14 05:30N 39°44' W 075°30'2 4.0
2018-Jun-14 05:00N 39°46' W 075°29'2 4.7
2018-Jun-14 04:30N 39°47' W 075°27'4 8.8
2018-Jun-14 04:00N 39°50' W 075°22'4 8.0
2018-Jun-14 03:30N 39°51' W 075°17'4 8.2
2018-Jun-14 03:00N 39°53' W 075°12'1 2.4
2018-Jun-14 02:30N 39°54' W 075°12'0 0.0
2018-Jun-14 02:00N 39°54' W 075°12'0 0.0
2018-Jun-14 01:30N 39°54' W 075°12'0 0.0
2018-Jun-14 01:00N 39°54' W 075°12'0 0.0
2018-Jun-14 00:30N 39°54' W 075°12'0 0.0
2018-Jun-14 00:00N 39°54' W 075°12'0 0.0
2018-Jun-13 23:30N 39°54' W 075°12'0 0.0
2018-Jun-13 23:00N 39°54' W 075°12'0 0.0
2018-Jun-13 22:30N 39°54' W 075°12'0 0.0
2018-Jun-13 22:00N 39°54' W 075°12'0 0.0
2018-Jun-13 21:30N 39°54' W 075°12'0 0.0
2018-Jun-13 21:00N 39°54' W 075°12'0 0.0
2018-Jun-13 20:30N 39°54' W 075°12'0 0.0
2018-Jun-13 20:00N 39°54' W 075°12'0 0.0
2018-Jun-13 19:30N 39°54' W 075°12'0 0.0
2018-Jun-13 19:01N 39°54' W 075°12'0 0.0
2018-Jun-13 18:30N 39°54' W 075°12'0 0.0
2018-Jun-13 18:00N 39°54' W 075°12'0 0.0
2018-Jun-13 17:30N 39°54' W 075°12'0 0.0
2018-Jun-13 17:00N 39°54' W 075°12'0 0.0
2018-Jun-13 16:30N 39°54' W 075°12'0 0.0
2018-Jun-13 16:00N 39°54' W 075°12'0 0.0
2018-Jun-13 15:30N 39°54' W 075°12'0 0.0
2018-Jun-13 15:00N 39°54' W 075°12'0 0.0
2018-Jun-13 14:30N 39°54' W 075°12'0 0.0
2018-Jun-13 14:00N 39°54' W 075°12'0 0.0
2018-Jun-13 13:30N 39°54' W 075°12'0 0.0
2018-Jun-13 13:00N 39°54' W 075°12'0 0.0
2018-Jun-13 12:30N 39°54' W 075°12'0 0.0
2018-Jun-13 12:00N 39°54' W 075°12'0 0.0
2018-Jun-13 11:30N 39°54' W 075°12'0 0.0
2018-Jun-13 11:00N 39°54' W 075°12'0 0.0
2018-Jun-13 10:30N 39°54' W 075°12'0 0.0
2018-Jun-13 10:00N 39°54' W 075°12'0 0.0
2018-Jun-13 09:30N 39°54' W 075°12'0 0.0
2018-Jun-13 09:00N 39°54' W 075°12'0 0.0
2018-Jun-13 08:30N 39°54' W 075°12'0 0.0
2018-Jun-13 08:00N 39°54' W 075°12'0 0.0
2018-Jun-13 07:30N 39°54' W 075°12'0 0.0
2018-Jun-13 07:00N 39°54' W 075°12'0 0.0
2018-Jun-13 06:30N 39°54' W 075°12'0 0.0
2018-Jun-13 06:00N 39°54' W 075°12'0 0.0
2018-Jun-13 05:30N 39°54' W 075°12'0 0.0
2018-Jun-13 05:00N 39°54' W 075°12'0 0.0
2018-Jun-13 04:30N 39°54' W 075°12'0 0.0
2018-Jun-13 04:00N 39°54' W 075°12'0 0.0
2018-Jun-13 03:30N 39°54' W 075°12'0 0.4
2018-Jun-13 03:00N 39°54' W 075°12'0 0.1
2018-Jun-13 02:30N 39°54' W 075°12'  
Track history (hours):
 
Tides and Currents Weather Stations Pressure Air Temp Water Temp Dewpoint Dewpoint Depression Visibility Wind Speed Wind Dir Waves Ship Positions

Teresa Mcallister

Owner: McAllister Towing of Philadelphia, INC, Philadelphia, PA. More information available from US FCC via Universal Licensing System and Coast Guard Vessel Documentation Center.

Last reported at 2018-Jun-19 04:00 UTC. Time now 2018-Jun-19 04:20 UTC.
Position N 39°54' W 075°08'.

Length 28 m.

Type: Tug. MMSI: 367061730.

Date/timePositionNaut miles runAvg speedWind from/ knotsBaromVisibWave heightAir tempDewpointWater temp
2018-Jun-19 04:00N 39°54' W 075°08'0 0.0
2018-Jun-19 03:30N 39°54' W 075°08'0 0.0
2018-Jun-19 03:00N 39°54' W 075°08'0 0.0
2018-Jun-19 02:29N 39°54' W 075°08'0 0.0
2018-Jun-19 02:01N 39°54' W 075°08'0 0.0
2018-Jun-19 01:30N 39°54' W 075°08'0 0.0
2018-Jun-19 01:00N 39°54' W 075°08'0 0.0
2018-Jun-19 00:30N 39°54' W 075°08'0 0.0
2018-Jun-19 00:00N 39°54' W 075°08'0 0.0
2018-Jun-18 23:30N 39°54' W 075°08'1 1.7
2018-Jun-18 23:00N 39°54' W 075°08'1 1.8
2018-Jun-18 22:30N 39°53' W 075°09'2 4.9
2018-Jun-18 22:00N 39°54' W 075°12'0 0.0
2018-Jun-18 21:30N 39°54' W 075°12'0 0.0
2018-Jun-18 21:00N 39°54' W 075°12'0 0.0
2018-Jun-18 20:30N 39°54' W 075°12'0 0.0
2018-Jun-18 20:00N 39°54' W 075°12'0 0.0
2018-Jun-18 19:30N 39°54' W 075°12'0 0.0
2018-Jun-18 19:00N 39°54' W 075°12'0 0.0
2018-Jun-18 18:30N 39°54' W 075°12'0 0.0
2018-Jun-18 18:00N 39°54' W 075°12'0 0.0
2018-Jun-18 17:30N 39°54' W 075°12'0 0.0
2018-Jun-18 17:00N 39°54' W 075°12'0 0.0
2018-Jun-18 16:30N 39°54' W 075°12'0 0.0
2018-Jun-18 16:00N 39°54' W 075°12'0 0.0
2018-Jun-18 15:30N 39°54' W 075°12'0 0.0
2018-Jun-18 15:00N 39°54' W 075°12'0 0.0
2018-Jun-18 14:30N 39°54' W 075°12'0 0.0
2018-Jun-18 14:00N 39°54' W 075°12'0 0.0
2018-Jun-18 13:30N 39°54' W 075°12'0 0.0
2018-Jun-18 13:00N 39°54' W 075°12'0 0.0
2018-Jun-18 12:31N 39°54' W 075°12'1 1.2
2018-Jun-18 12:01N 39°53' W 075°12'3 5.2
2018-Jun-18 11:31N 39°54' W 075°08'0 0.5
2018-Jun-18 11:01N 39°54' W 075°08'2 4.0
2018-Jun-18 10:30N 39°53' W 075°11'1 1.8
2018-Jun-18 10:01N 39°53' W 075°10'1 2.5
2018-Jun-18 09:30N 39°54' W 075°08'0 0.0
2018-Jun-18 09:01N 39°54' W 075°08'2 4.7
2018-Jun-18 08:31N 39°56' W 075°08'0 0.0
2018-Jun-18 07:59N 39°56' W 075°08'0 0.8
2018-Jun-18 07:30N 39°56' W 075°08'2 3.7
2018-Jun-18 07:00N 39°54' W 075°08'2 4.0
2018-Jun-18 06:31N 39°56' W 075°08'1 2.1
2018-Jun-18 06:00N 39°55' W 075°08'3 6.7
2018-Jun-18 05:31N 39°54' W 075°12'0 0.0
2018-Jun-17 10:24N 39°54' W 075°12'3 6.6
2018-Jun-17 10:00N 39°53' W 075°09'1 1.8
2018-Jun-17 09:30N 39°54' W 075°08'2 3.6
2018-Jun-17 09:00N 39°53' W 075°10'2 4.4
2018-Jun-17 08:30N 39°54' W 075°08'0 0.0
2018-Jun-17 08:00N 39°54' W 075°08'0 0.0
2018-Jun-17 07:30N 39°54' W 075°08'0 0.0
2018-Jun-17 07:00N 39°54' W 075°08'0 0.0
2018-Jun-17 06:30N 39°54' W 075°08'0 0.0
2018-Jun-17 06:00N 39°54' W 075°08'0 0.0
2018-Jun-17 05:30N 39°54' W 075°08'0 0.8
2018-Jun-17 05:00N 39°55' W 075°08'1 1.0
2018-Jun-17 04:30N 39°54' W 075°08'0 0.2
2018-Jun-17 04:00N 39°54' W 075°08'0 0.0
2018-Jun-17 03:30N 39°54' W 075°08'0 0.0
2018-Jun-17 03:00N 39°54' W 075°08'4 7.4
2018-Jun-17 02:30N 39°58' W 075°07'510.1
2018-Jun-17 02:00N 40°01' W 075°02'611.2
2018-Jun-17 01:30N 40°04' W 074°56'510.1
2018-Jun-17 01:00N 40°06' W 074°50'4 7.9
2018-Jun-17 00:29N 40°08' W 074°45'0 0.1
2018-Jun-17 00:00N 40°08' W 074°45'3 6.7
2018-Jun-16 23:30N 40°07' W 074°50'4 7.9
2018-Jun-16 23:00N 40°05' W 074°53'4 8.9
2018-Jun-16 22:30N 40°03' W 074°58'4 8.7
2018-Jun-16 22:00N 40°00' W 075°03'5 9.1
2018-Jun-16 21:30N 39°58' W 075°08'4 8.3
2018-Jun-16 21:00N 39°53' W 075°08'3 5.6
2018-Jun-16 20:30N 39°54' W 075°12'0 0.0
2018-Jun-16 20:00N 39°54' W 075°12'0 0.0
2018-Jun-16 19:30N 39°54' W 075°12'0 0.0
2018-Jun-16 19:00N 39°54' W 075°12'0 0.0
2018-Jun-16 18:30N 39°54' W 075°12'0 0.0
2018-Jun-16 18:00N 39°54' W 075°12'0 0.0
2018-Jun-16 17:30N 39°54' W 075°12'0 0.8
2018-Jun-16 17:00N 39°53' W 075°12'3 5.9
2018-Jun-16 16:30N 39°54' W 075°08'0 0.2
2018-Jun-16 16:00N 39°54' W 075°08'1 2.1
2018-Jun-16 15:30N 39°53' W 075°08'2 3.5
2018-Jun-16 15:00N 39°53' W 075°11'1 2.7
2018-Jun-16 14:30N 39°54' W 075°12'0 0.0
2018-Jun-16 14:00N 39°54' W 075°12'0 0.0
2018-Jun-16 13:30N 39°54' W 075°12'0 0.0
2018-Jun-16 13:00N 39°54' W 075°12'0 0.0
2018-Jun-16 12:31N 39°54' W 075°12'0 0.0
2018-Jun-16 12:00N 39°54' W 075°12'0 0.0
2018-Jun-16 11:31N 39°54' W 075°12'0 0.0
2018-Jun-16 11:00N 39°54' W 075°12'0 0.0
2018-Jun-16 10:31N 39°54' W 075°12'0 0.0
2018-Jun-16 10:00N 39°54' W 075°12'0 0.0
2018-Jun-16 09:31N 39°54' W 075°12'0 0.0
2018-Jun-16 09:01N 39°54' W 075°12'0 0.0
2018-Jun-16 08:30N 39°54' W 075°12'0 0.0
2018-Jun-16 08:01N 39°54' W 075°12'0 0.0
2018-Jun-16 07:30N 39°54' W 075°12'0 0.0
2018-Jun-16 07:01N 39°54' W 075°12'0 0.0
2018-Jun-16 06:30N 39°54' W 075°12'0 0.0
2018-Jun-16 06:00N 39°54' W 075°12'0 0.0
2018-Jun-16 05:30N 39°54' W 075°12'0 0.0
2018-Jun-16 05:00N 39°54' W 075°12'0 0.0
2018-Jun-16 04:30N 39°54' W 075°12'0 0.0
2018-Jun-16 04:00N 39°54' W 075°12'0 0.0
2018-Jun-16 03:30N 39°54' W 075°12'0 0.0
2018-Jun-16 03:00N 39°54' W 075°12'0 0.0
2018-Jun-16 02:30N 39°54' W 075°12'0 0.0
2018-Jun-16 02:00N 39°54' W 075°12'0 0.0
2018-Jun-16 01:30N 39°54' W 075°12'0 0.0
2018-Jun-16 01:00N 39°54' W 075°12'0 0.0
2018-Jun-16 00:30N 39°54' W 075°12'0 0.0
2018-Jun-16 00:00N 39°54' W 075°12'0 0.0
2018-Jun-15 23:30N 39°54' W 075°12'0 0.0
2018-Jun-15 22:59N 39°54' W 075°12'0 0.0
2018-Jun-15 22:30N 39°54' W 075°12'2 3.4
2018-Jun-15 22:00N 39°52' W 075°13'3 6.8
2018-Jun-15 21:30N 39°51' W 075°17'1 1.1
2018-Jun-15 21:00N 39°51' W 075°16'3 5.0
2018-Jun-15 20:30N 39°52' W 075°13'2 3.4
2018-Jun-15 19:56N 39°54' W 075°12'0 0.7
2018-Jun-15 19:30N 39°54' W 075°12'0 0.0
2018-Jun-15 19:00N 39°54' W 075°12'0 0.0
2018-Jun-15 18:30N 39°54' W 075°12'0 0.0
2018-Jun-15 18:00N 39°54' W 075°12'0 0.0
2018-Jun-15 17:30N 39°54' W 075°12'0 0.0
2018-Jun-15 17:00N 39°54' W 075°12'0 0.0
2018-Jun-15 16:30N 39°54' W 075°12'0 0.0
2018-Jun-15 16:00N 39°54' W 075°12'0 0.0
2018-Jun-15 15:30N 39°54' W 075°12'0 0.0
2018-Jun-15 15:00N 39°54' W 075°12'0 0.0
2018-Jun-15 14:30N 39°54' W 075°12'0 0.0
2018-Jun-15 14:00N 39°54' W 075°12'0 0.1
2018-Jun-15 13:30N 39°54' W 075°12'0 0.0
2018-Jun-15 13:01N 39°54' W 075°12'0 0.0
2018-Jun-15 12:30N 39°54' W 075°12'0 0.0
2018-Jun-15 12:00N 39°54' W 075°12'0 0.0
2018-Jun-15 11:30N 39°54' W 075°12'0 0.0
2018-Jun-15 11:01N 39°54' W 075°12'0 0.0
2018-Jun-15 10:31N 39°54' W 075°12'0 0.0
2018-Jun-15 10:00N 39°54' W 075°12'0 0.0
2018-Jun-15 09:30N 39°54' W 075°12'0 0.0
2018-Jun-15 09:00N 39°54' W 075°12'0 0.0
2018-Jun-15 08:30N 39°54' W 075°12'0 0.0
2018-Jun-15 08:00N 39°54' W 075°12'0 0.0
2018-Jun-15 07:30N 39°54' W 075°12'0 0.0
2018-Jun-15 07:00N 39°54' W 075°12'0 0.0
2018-Jun-15 06:31N 39°54' W 075°12'0 0.0
2018-Jun-15 06:01N 39°54' W 075°12'0 0.0
2018-Jun-15 05:30N 39°54' W 075°12'0 0.0
2018-Jun-15 05:00N 39°54' W 075°12'0 0.0
2018-Jun-15 04:31N 39°54' W 075°12'0 0.0
2018-Jun-15 04:00N 39°54' W 075°12'0 0.0
2018-Jun-15 03:30N 39°54' W 075°12'0 0.0
2018-Jun-15 03:00N 39°54' W 075°12'0 0.0
2018-Jun-15 02:30N 39°54' W 075°12'0 0.0
2018-Jun-15 02:00N 39°54' W 075°12'0 0.0
2018-Jun-15 01:30N 39°54' W 075°12'0 0.0
2018-Jun-15 01:00N 39°54' W 075°12'0 0.0
2018-Jun-15 00:30N 39°54' W 075°12'0 0.0
2018-Jun-15 00:00N 39°54' W 075°12'0 0.0
2018-Jun-14 23:30N 39°54' W 075°12'0 0.0
2018-Jun-14 23:00N 39°54' W 075°12'2 4.1
2018-Jun-14 22:30N 39°53' W 075°09'5 9.1
2018-Jun-14 22:00N 39°57' W 075°08'2 4.4
2018-Jun-14 21:30N 39°58' W 075°06'0 0.3
2018-Jun-14 21:00N 39°59' W 075°06'4 7.5
2018-Jun-14 20:30N 39°55' W 075°08'1 2.0
2018-Jun-14 20:00N 39°54' W 075°08'0 0.1
2018-Jun-14 19:30N 39°54' W 075°08'2 3.2
2018-Jun-14 19:00N 39°53' W 075°09'3 5.1
2018-Jun-14 18:30N 39°54' W 075°12'0 0.0
2018-Jun-14 18:00N 39°54' W 075°12'0 0.0
2018-Jun-14 17:30N 39°54' W 075°12'0 0.0
2018-Jun-14 17:00N 39°54' W 075°12'0 0.0
2018-Jun-14 16:30N 39°54' W 075°12'0 0.0
2018-Jun-14 16:00N 39°54' W 075°12'0 0.0
2018-Jun-14 15:30N 39°54' W 075°12'0 0.0
2018-Jun-14 15:00N 39°54' W 075°12'0 0.0
2018-Jun-14 14:30N 39°54' W 075°12'0 0.0
2018-Jun-14 14:01N 39°54' W 075°12'0 0.0
2018-Jun-14 13:30N 39°54' W 075°12'0 0.0
2018-Jun-14 13:00N 39°54' W 075°12'0 0.0
2018-Jun-14 12:30N 39°54' W 075°12'0 0.0
2018-Jun-14 12:00N 39°54' W 075°12'0 0.0
2018-Jun-14 11:30N 39°54' W 075°12'0 0.0
2018-Jun-14 11:00N 39°54' W 075°12'0 0.0
2018-Jun-14 10:30N 39°54' W 075°12'0 0.0
2018-Jun-14 10:01N 39°54' W 075°12'3 7.0
2018-Jun-14 09:31N 39°51' W 075°15'4 8.6
2018-Jun-14 09:00N 39°51' W 075°20'4 8.9
2018-Jun-14 08:30N 39°48' W 075°25'5 9.4
2018-Jun-14 08:00N 39°45' W 075°30'2 4.2
2018-Jun-14 07:30N 39°43' W 075°31'0 0.0
2018-Jun-14 07:00N 39°43' W 075°31'0 0.1
2018-Jun-14 06:30N 39°43' W 075°31'1 1.2
2018-Jun-14 06:00N 39°43' W 075°30'0 1.0
2018-Jun-14 05:30N 39°44' W 075°30'2 4.0
2018-Jun-14 05:00N 39°46' W 075°29'2 4.7
2018-Jun-14 04:30N 39°47' W 075°27'4 8.8
2018-Jun-14 04:00N 39°50' W 075°22'4 8.0
2018-Jun-14 03:30N 39°51' W 075°17'4 8.2
2018-Jun-14 03:00N 39°53' W 075°12'1 2.4
2018-Jun-14 02:30N 39°54' W 075°12'0 0.0
2018-Jun-14 02:00N 39°54' W 075°12'0 0.0
2018-Jun-14 01:30N 39°54' W 075°12'0 0.0
2018-Jun-14 01:00N 39°54' W 075°12'0 0.0
2018-Jun-14 00:30N 39°54' W 075°12'0 0.0
2018-Jun-14 00:00N 39°54' W 075°12'0 0.0
2018-Jun-13 23:30N 39°54' W 075°12'0 0.0
2018-Jun-13 23:00N 39°54' W 075°12'0 0.0
2018-Jun-13 22:30N 39°54' W 075°12'0 0.0
2018-Jun-13 22:00N 39°54' W 075°12'0 0.0
2018-Jun-13 21:30N 39°54' W 075°12'0 0.0
2018-Jun-13 21:00N 39°54' W 075°12'0 0.0
2018-Jun-13 20:30N 39°54' W 075°12'0 0.0
2018-Jun-13 20:00N 39°54' W 075°12'0 0.0
2018-Jun-13 19:30N 39°54' W 075°12'0 0.0
2018-Jun-13 19:01N 39°54' W 075°12'0 0.0
2018-Jun-13 18:30N 39°54' W 075°12'0 0.0
2018-Jun-13 18:00N 39°54' W 075°12'0 0.0
2018-Jun-13 17:30N 39°54' W 075°12'0 0.0
2018-Jun-13 17:00N 39°54' W 075°12'0 0.0
2018-Jun-13 16:30N 39°54' W 075°12'0 0.0
2018-Jun-13 16:00N 39°54' W 075°12'0 0.0
2018-Jun-13 15:30N 39°54' W 075°12'0 0.0
2018-Jun-13 15:00N 39°54' W 075°12'0 0.0
2018-Jun-13 14:30N 39°54' W 075°12'0 0.0
2018-Jun-13 14:00N 39°54' W 075°12'0 0.0
2018-Jun-13 13:30N 39°54' W 075°12'0 0.0
2018-Jun-13 13:00N 39°54' W 075°12'0 0.0
2018-Jun-13 12:30N 39°54' W 075°12'0 0.0
2018-Jun-13 12:00N 39°54' W 075°12'0 0.0
2018-Jun-13 11:30N 39°54' W 075°12'0 0.0
2018-Jun-13 11:00N 39°54' W 075°12'0 0.0
2018-Jun-13 10:30N 39°54' W 075°12'0 0.0
2018-Jun-13 10:00N 39°54' W 075°12'0 0.0
2018-Jun-13 09:30N 39°54' W 075°12'0 0.0
2018-Jun-13 09:00N 39°54' W 075°12'0 0.0
2018-Jun-13 08:30N 39°54' W 075°12'0 0.0
2018-Jun-13 08:00N 39°54' W 075°12'0 0.0
2018-Jun-13 07:30N 39°54' W 075°12'0 0.0
2018-Jun-13 07:00N 39°54' W 075°12'0 0.0
2018-Jun-13 06:30N 39°54' W 075°12'0 0.0
2018-Jun-13 06:00N 39°54' W 075°12'0 0.0
2018-Jun-13 05:30N 39°54' W 075°12'0 0.0
2018-Jun-13 05:00N 39°54' W 075°12'0 0.0
2018-Jun-13 04:30N 39°54' W 075°12'0 0.0
2018-Jun-13 04:00N 39°54' W 075°12'0 0.0
2018-Jun-13 03:30N 39°54' W 075°12'0 0.4
2018-Jun-13 03:00N 39°54' W 075°12'0 0.1
2018-Jun-13 02:30N 39°54' W 075°12'  

Dump ship's entire track history